Time;durP1;ratioP1;P1;durP2;ratioP2;P2;SDS_P1;SDS_P2;PMS_P1;PMS_P2;Temp;Humidity;BMP_temperature;BMP_pressure;BME280_temperature;BME280_humidity;BME280_pressure;Samples;Min_cycle;Max_cycle;Signal;HPM_P1;HPM_P2
2023/08/23 00:01:55;;;;;;;0.90;0.90;;;15.80;99.90;;;;;;4966111;28;20046;-84
2023/08/23 00:04:20;;;;;;;0.90;0.90;;;15.70;99.90;;;;;;4966269;28;20073;-84
2023/08/23 00:06:46;;;;;;;0.90;0.90;;;15.70;99.90;;;;;;4962799;28;20510;-84
2023/08/23 00:09:13;;;;;;;0.90;0.90;;;15.60;99.90;;;;;;4984035;28;20053;-84
2023/08/23 00:11:39;;;;;;;0.80;0.80;;;15.50;99.90;;;;;;4984325;28;20554;-84
2023/08/23 00:14:05;;;;;;;0.90;0.90;;;15.50;99.90;;;;;;4985686;28;20046;-84
2023/08/23 00:16:31;;;;;;;0.90;0.90;;;15.50;99.90;;;;;;4965621;28;20738;-83
2023/08/23 00:18:56;;;;;;;0.90;0.90;;;15.60;99.90;;;;;;4968201;28;20499;-84
2023/08/23 00:21:22;;;;;;;0.90;0.90;;;15.50;99.90;;;;;;4944519;28;20174;-83
2023/08/23 00:23:48;;;;;;;0.90;0.90;;;15.60;99.90;;;;;;4963030;28;20617;-83
2023/08/23 00:26:14;;;;;;;0.88;0.88;;;15.50;99.90;;;;;;4962799;28;20132;-82
2023/08/23 00:28:40;;;;;;;0.90;0.90;;;15.60;99.90;;;;;;4983276;28;20041;-82
2023/08/23 00:31:08;;;;;;;0.93;0.93;;;15.50;99.90;;;;;;4967418;28;20054;-82
2023/08/23 00:33:33;;;;;;;0.90;0.90;;;15.30;99.90;;;;;;4979707;28;20726;-82
2023/08/23 00:35:59;;;;;;;0.88;0.88;;;15.30;99.90;;;;;;4969214;28;20047;-82
2023/08/23 00:38:25;;;;;;;0.80;0.80;;;15.30;99.90;;;;;;4983505;28;20141;-82
2023/08/23 00:40:50;;;;;;;1.00;1.00;;;15.20;99.90;;;;;;4963224;28;20699;-82
2023/08/23 00:43:16;;;;;;;1.00;1.00;;;15.30;99.90;;;;;;4965787;28;20447;-82
2023/08/23 00:45:42;;;;;;;1.00;1.00;;;15.10;99.90;;;;;;4982955;28;20073;-83
2023/08/23 00:48:10;;;;;;;1.00;1.00;;;15.40;99.90;;;;;;4960727;28;20054;-82
2023/08/23 00:50:36;;;;;;;1.00;1.00;;;15.30;99.90;;;;;;4975443;28;20078;-82
2023/08/23 00:53:02;;;;;;;1.00;1.00;;;15.20;99.90;;;;;;4961712;28;20420;-82
2023/08/23 00:55:29;;;;;;;1.02;1.02;;;15.40;99.90;;;;;;4963038;28;20208;-82
2023/08/23 00:57:56;;;;;;;1.10;1.10;;;15.20;99.90;;;;;;4977169;28;20054;-83
2023/08/23 01:00:22;;;;;;;1.00;1.00;;;15.10;99.90;;;;;;4945357;28;20145;-83
2023/08/23 01:02:48;;;;;;;1.00;1.00;;;15.00;99.90;;;;;;4976476;28;20086;-82
2023/08/23 01:05:15;;;;;;;1.10;1.10;;;15.00;99.90;;;;;;4975764;28;20145;-82
2023/08/23 01:08:03;;;;;;;1.00;1.00;;;14.90;99.90;;;;;;4963506;28;20081;-82
2023/08/23 01:10:41;;;;;;;1.10;1.10;;;15.10;99.90;;;;;;4958061;28;20154;-82
2023/08/23 01:13:25;;;;;;;1.10;1.10;;;14.90;99.90;;;;;;4965241;28;20050;-82
2023/08/23 01:15:54;;;;;;;1.02;1.02;;;15.00;99.90;;;;;;4980653;28;20471;-82
2023/08/23 01:18:21;;;;;;;1.13;1.13;;;14.90;99.90;;;;;;4983312;28;20570;-81
2023/08/23 01:20:50;;;;;;;1.10;1.10;;;15.00;99.90;;;;;;4976231;28;20133;-82
2023/08/23 01:23:17;;;;;;;1.20;1.20;;;14.80;99.90;;;;;;4980639;28;20061;-82
2023/08/23 01:25:52;;;;;;;1.25;1.25;;;14.90;99.90;;;;;;4975484;28;20049;-82
2023/08/23 01:28:20;;;;;;;1.30;1.30;;;14.90;99.90;;;;;;4981456;28;20053;-82
2023/08/23 01:30:46;;;;;;;1.30;1.30;;;14.90;99.90;;;;;;4961400;28;20050;-81
2023/08/23 01:33:25;;;;;;;1.30;1.30;;;14.80;99.90;;;;;;4965245;28;20073;-81
2023/08/23 01:36:25;;;;;;;1.50;1.40;;;14.80;99.90;;;;;;4967869;28;20054;-81
2023/08/23 01:38:52;;;;;;;1.50;1.40;;;14.80;99.90;;;;;;4976930;28;20539;-81
2023/08/23 01:41:18;;;;;;;1.50;1.40;;;14.80;99.90;;;;;;4965206;28;20066;-81
2023/08/23 01:43:47;;;;;;;1.50;1.40;;;14.60;99.90;;;;;;4981718;28;20418;-81
2023/08/23 01:46:13;;;;;;;1.60;1.50;;;14.70;99.90;;;;;;4979303;28;20062;-81
2023/08/23 01:48:39;;;;;;;1.60;1.50;;;14.80;99.90;;;;;;4948999;28;20046;-81
2023/08/23 01:51:05;;;;;;;1.65;1.55;;;15.00;99.90;;;;;;4946825;28;20053;-81
2023/08/23 01:53:31;;;;;;;1.70;1.60;;;15.10;99.90;;;;;;4979916;28;20898;-81
2023/08/23 01:55:56;;;;;;;1.70;1.60;;;15.00;99.90;;;;;;4983636;28;20045;-81
2023/08/23 01:58:24;;;;;;;1.70;1.60;;;15.20;99.90;;;;;;4979562;28;20125;-81
2023/08/23 02:00:49;;;;;;;1.90;1.80;;;15.10;99.90;;;;;;4978768;28;20058;-82
2023/08/23 02:03:15;;;;;;;1.90;1.80;;;14.90;99.90;;;;;;4963150;28;20135;-81
2023/08/23 02:05:41;;;;;;;1.85;1.75;;;14.90;99.90;;;;;;4979064;28;20042;-82
2023/08/23 02:08:06;;;;;;;1.95;1.85;;;15.00;99.90;;;;;;4959110;28;20046;-81
2023/08/23 02:10:32;;;;;;;1.98;1.88;;;15.00;99.90;;;;;;4979920;28;20051;-81
2023/08/23 02:12:58;;;;;;;1.98;1.88;;;14.90;99.90;;;;;;4980708;28;20049;-81
2023/08/23 02:15:23;;;;;;;1.98;1.88;;;14.70;99.90;;;;;;4965395;28;20041;-81
2023/08/23 02:17:52;;;;;;;2.08;1.98;;;14.70;99.90;;;;;;4963732;28;20056;-81
2023/08/23 02:20:18;;;;;;;2.05;1.95;;;14.70;99.90;;;;;;4978285;28;20408;-81
2023/08/23 02:22:44;;;;;;;2.00;1.90;;;14.70;99.90;;;;;;4959180;28;20080;-81
2023/08/23 02:25:09;;;;;;;2.05;1.95;;;15.00;99.90;;;;;;4961126;28;20558;-81
2023/08/23 02:27:35;;;;;;;2.00;1.90;;;14.90;99.90;;;;;;4961121;28;20570;-80
2023/08/23 02:30:01;;;;;;;2.03;1.92;;;14.90;99.90;;;;;;4960087;28;20409;-81
2023/08/23 02:32:26;;;;;;;2.08;1.98;;;14.60;99.90;;;;;;4957176;28;20594;-81
2023/08/23 02:34:52;;;;;;;2.10;2.00;;;14.80;99.90;;;;;;4977224;28;20064;-81
2023/08/23 02:37:17;;;;;;;1.95;1.85;;;14.70;99.90;;;;;;4956471;28;20050;-81
2023/08/23 02:39:43;;;;;;;2.05;1.95;;;14.50;99.90;;;;;;4985605;28;20064;-81
2023/08/23 02:42:09;;;;;;;1.95;1.85;;;14.90;99.90;;;;;;4976410;28;20046;-81
2023/08/23 02:44:34;;;;;;;1.90;1.80;;;14.90;99.90;;;;;;4979818;28;20487;-81
2023/08/23 02:47:00;;;;;;;2.00;1.90;;;15.00;99.90;;;;;;4958965;28;20161;-82
2023/08/23 02:49:26;;;;;;;2.03;1.92;;;14.80;99.90;;;;;;4962005;28;20530;-82
2023/08/23 02:51:51;;;;;;;2.03;1.92;;;14.70;99.90;;;;;;4961199;28;20504;-81
2023/08/23 02:54:17;;;;;;;2.03;1.92;;;14.70;99.90;;;;;;4982622;28;20506;-81
2023/08/23 02:56:43;;;;;;;2.15;2.05;;;14.50;99.90;;;;;;4984026;28;20400;-81
2023/08/23 02:59:08;;;;;;;2.05;1.95;;;14.60;99.90;;;;;;4963849;28;20703;-81
2023/08/23 03:01:34;;;;;;;2.13;2.03;;;14.30;99.90;;;;;;4961867;28;20057;-81
2023/08/23 03:04:00;;;;;;;2.22;2.13;;;14.40;99.90;;;;;;4977975;28;20047;-81
2023/08/23 03:06:25;;;;;;;2.05;1.95;;;14.50;99.90;;;;;;4985915;28;20077;-81
2023/08/23 03:08:51;;;;;;;2.05;1.95;;;14.50;99.90;;;;;;4959947;28;20169;-82
2023/08/23 03:11:17;;;;;;;1.77;1.67;;;14.60;99.90;;;;;;4960450;28;20112;-81
2023/08/23 03:13:42;;;;;;;2.05;1.95;;;14.60;99.90;;;;;;4963774;28;20150;-81
2023/08/23 03:16:08;;;;;;;2.17;2.08;;;14.60;99.90;;;;;;4978064;28;20062;-81
2023/08/23 03:18:34;;;;;;;1.83;1.73;;;14.70;99.90;;;;;;4985720;28;20121;-81
2023/08/23 03:20:59;;;;;;;1.60;1.50;;;14.70;99.90;;;;;;4963273;28;20088;-81
2023/08/23 03:23:25;;;;;;;2.22;2.13;;;14.80;99.90;;;;;;4983231;28;20038;-81
2023/08/23 03:25:51;;;;;;;1.80;1.70;;;14.90;99.90;;;;;;4964986;28;20077;-82
2023/08/23 03:28:16;;;;;;;1.65;1.55;;;15.00;99.90;;;;;;4964040;28;20049;-81
2023/08/23 03:30:42;;;;;;;2.05;1.95;;;14.90;99.90;;;;;;4983143;28;20054;-81
2023/08/23 03:33:08;;;;;;;1.80;1.70;;;14.90;99.90;;;;;;4964897;28;20547;-81
2023/08/23 03:35:33;;;;;;;1.92;1.83;;;15.00;99.90;;;;;;4984658;28;20085;-82
2023/08/23 03:38:00;;;;;;;1.85;1.75;;;15.10;99.90;;;;;;4960983;28;20052;-82
2023/08/23 03:40:26;;;;;;;1.90;1.80;;;15.10;99.90;;;;;;4978561;28;20058;-82
2023/08/23 03:42:51;;;;;;;1.83;1.73;;;15.30;99.90;;;;;;4966262;28;20626;-82
2023/08/23 03:45:18;;;;;;;2.20;2.10;;;15.10;99.90;;;;;;4987227;28;20054;-82
2023/08/23 03:47:44;;;;;;;1.85;1.75;;;15.50;99.90;;;;;;4983290;28;20098;-81
2023/08/23 03:50:11;;;;;;;1.90;1.80;;;15.30;99.90;;;;;;4964380;28;20125;-82
2023/08/23 03:52:37;;;;;;;2.20;2.10;;;15.30;99.90;;;;;;4969876;28;20050;-81
2023/08/23 03:55:03;;;;;;;2.15;2.05;;;15.60;99.90;;;;;;4987414;28;20049;-81
2023/08/23 03:57:29;;;;;;;1.85;1.75;;;15.70;99.90;;;;;;4967633;28;20057;-82
2023/08/23 03:59:55;;;;;;;2.10;2.00;;;15.70;99.90;;;;;;4961841;28;20066;-81
2023/08/23 04:02:20;;;;;;;2.05;1.95;;;15.60;99.90;;;;;;4965442;28;20050;-82
2023/08/23 04:04:47;;;;;;;2.05;1.95;;;15.60;99.90;;;;;;4966690;28;20124;-82
2023/08/23 04:07:14;;;;;;;2.08;1.98;;;15.80;99.90;;;;;;4982641;28;20050;-82
2023/08/23 04:09:40;;;;;;;2.10;2.00;;;15.50;99.90;;;;;;4962347;28;20061;-81
2023/08/23 04:12:07;;;;;;;2.13;2.03;;;15.80;99.90;;;;;;4964344;28;20039;-82
2023/08/23 04:14:33;;;;;;;2.15;2.05;;;15.70;99.90;;;;;;4962069;28;20508;-82
2023/08/23 04:16:59;;;;;;;1.88;1.77;;;15.50;99.90;;;;;;4963890;28;20045;-81
2023/08/23 04:19:25;;;;;;;1.95;1.85;;;15.60;99.90;;;;;;4962509;28;20109;-82
2023/08/23 04:21:51;;;;;;;2.10;2.00;;;15.50;99.90;;;;;;4944400;28;20060;-81
2023/08/23 04:24:17;;;;;;;1.98;1.88;;;15.80;99.90;;;;;;4964329;28;20078;-81
2023/08/23 04:26:43;;;;;;;2.00;1.90;;;15.50;99.90;;;;;;4984613;28;20057;-81
2023/08/23 04:29:08;;;;;;;1.90;1.80;;;15.70;99.90;;;;;;4962129;28;20193;-80
2023/08/23 04:31:34;;;;;;;1.92;1.83;;;15.50;99.90;;;;;;4965775;28;20050;-81
2023/08/23 04:34:02;;;;;;;1.92;1.83;;;15.70;99.90;;;;;;4964813;28;20132;-81
2023/08/23 04:36:28;;;;;;;1.70;1.60;;;15.70;99.90;;;;;;4981089;28;20497;-82
2023/08/23 04:38:54;;;;;;;1.60;1.50;;;15.80;99.90;;;;;;4961247;28;20061;-81
2023/08/23 04:41:19;;;;;;;1.90;1.80;;;15.50;99.90;;;;;;4981845;28;20050;-82
2023/08/23 04:43:45;;;;;;;1.90;1.80;;;15.40;99.90;;;;;;4962777;28;20105;-82
2023/08/23 04:46:11;;;;;;;1.80;1.70;;;15.40;99.90;;;;;;4961752;28;20058;-82
2023/08/23 04:48:36;;;;;;;1.70;1.60;;;15.30;99.90;;;;;;4963163;28;20068;-82
2023/08/23 04:51:04;;;;;;;1.70;1.60;;;15.30;99.90;;;;;;4963793;28;20205;-81
2023/08/23 04:53:30;;;;;;;1.70;1.60;;;15.30;99.90;;;;;;4985560;28;20185;-82
2023/08/23 04:55:58;;;;;;;1.65;1.55;;;15.30;99.90;;;;;;4964458;28;20145;-82
2023/08/23 04:58:29;;;;;;;1.60;1.50;;;15.50;99.90;;;;;;4975033;28;20116;-81
2023/08/23 05:00:58;;;;;;;1.70;1.60;;;15.60;99.90;;;;;;4980148;28;20068;-82
2023/08/23 05:03:25;;;;;;;1.77;1.67;;;15.70;99.90;;;;;;4964290;28;20046;-81
2023/08/23 05:05:52;;;;;;;1.70;1.60;;;15.60;99.90;;;;;;4974014;28;20484;-85
2023/08/23 05:08:18;;;;;;;1.70;1.60;;;15.50;99.90;;;;;;4969861;28;20051;-81
2023/08/23 05:10:43;;;;;;;1.60;1.50;;;15.70;99.90;;;;;;4965843;28;20420;-81
2023/08/23 05:13:09;;;;;;;1.70;1.60;;;15.60;99.90;;;;;;4979190;28;20069;-81
2023/08/23 05:15:35;;;;;;;1.63;1.52;;;15.60;99.90;;;;;;4958232;28;20046;-82
2023/08/23 05:18:00;;;;;;;1.65;1.55;;;15.60;99.90;;;;;;4961016;28;20054;-81
2023/08/23 05:20:26;;;;;;;1.50;1.40;;;15.80;99.90;;;;;;4957653;28;20093;-81
2023/08/23 05:22:52;;;;;;;1.42;1.38;;;15.70;99.90;;;;;;4980448;28;20047;-82
2023/08/23 05:25:17;;;;;;;1.40;1.38;;;15.90;99.90;;;;;;4980209;28;20799;-82
2023/08/23 05:27:43;;;;;;;1.48;1.40;;;15.60;99.90;;;;;;4965456;28;20057;-81
2023/08/23 05:30:09;;;;;;;1.70;1.60;;;15.70;99.90;;;;;;4978941;28;20508;-82
2023/08/23 05:32:35;;;;;;;1.70;1.60;;;15.80;99.90;;;;;;4964590;28;20042;-81
2023/08/23 05:35:01;;;;;;;1.67;1.58;;;15.80;99.90;;;;;;4962085;28;20056;-81
2023/08/23 05:37:27;;;;;;;1.77;1.67;;;15.70;99.90;;;;;;4963722;28;20060;-81
2023/08/23 05:39:52;;;;;;;1.80;1.70;;;15.90;99.90;;;;;;4967989;28;20046;-81
2023/08/23 05:42:18;;;;;;;1.77;1.67;;;15.80;99.90;;;;;;4975963;28;20101;-82
2023/08/23 05:44:44;;;;;;;1.70;1.60;;;15.80;99.90;;;;;;4964228;28;20133;-83
2023/08/23 05:47:10;;;;;;;1.60;1.50;;;15.80;99.90;;;;;;4968471;28;20048;-84
2023/08/23 05:49:35;;;;;;;1.70;1.60;;;16.20;99.90;;;;;;4961466;28;20500;-85
2023/08/23 05:52:01;;;;;;;1.60;1.50;;;16.90;99.90;;;;;;4975305;28;20054;-84
2023/08/23 05:54:27;;;;;;;1.60;1.50;;;17.00;99.90;;;;;;4959268;28;20046;-84
2023/08/23 05:56:52;;;;;;;1.58;1.48;;;16.90;99.90;;;;;;4962157;28;20049;-84
2023/08/23 05:59:18;;;;;;;1.55;1.45;;;16.80;99.90;;;;;;4961469;28;20214;-82
2023/08/23 06:01:44;;;;;;;1.63;1.52;;;16.70;99.90;;;;;;4962813;28;20077;-82
2023/08/23 06:04:09;;;;;;;1.63;1.52;;;16.80;99.90;;;;;;4959317;28;20137;-81
2023/08/23 06:06:35;;;;;;;1.60;1.50;;;16.70;99.90;;;;;;4959356;28;20070;-82
2023/08/23 06:09:01;;;;;;;1.70;1.60;;;16.60;99.90;;;;;;4968729;28;20068;-85
2023/08/23 06:11:26;;;;;;;1.60;1.50;;;17.00;99.90;;;;;;4958224;28;20046;-83
2023/08/23 06:13:52;;;;;;;1.70;1.60;;;17.00;99.90;;;;;;4979254;28;20051;-82
2023/08/23 06:16:18;;;;;;;1.80;1.70;;;16.90;99.90;;;;;;4983162;28;20062;-82
2023/08/23 06:18:43;;;;;;;1.70;1.60;;;17.00;99.90;;;;;;4962431;28;20056;-81
2023/08/23 06:21:09;;;;;;;1.65;1.55;;;16.80;99.90;;;;;;4965104;28;20050;-81
2023/08/23 06:23:36;;;;;;;1.65;1.55;;;17.00;99.90;;;;;;4978122;28;20485;-81
2023/08/23 06:26:03;;;;;;;1.23;1.23;;;17.20;99.90;;;;;;4966174;28;20058;-82
2023/08/23 06:28:29;;;;;;;1.30;1.30;;;17.50;99.90;;;;;;4964673;28;20046;-82
2023/08/23 06:30:56;;;;;;;1.30;1.30;;;17.90;99.90;;;;;;4958807;28;20128;-82
2023/08/23 06:33:22;;;;;;;1.17;1.17;;;18.10;99.90;;;;;;4960455;28;20062;-81
2023/08/23 06:35:47;;;;;;;1.27;1.27;;;18.50;99.90;;;;;;4960959;28;20054;-81
2023/08/23 06:38:15;;;;;;;1.40;1.33;;;18.60;99.90;;;;;;4971452;28;20046;-81
2023/08/23 06:40:42;;;;;;;1.30;1.30;;;18.90;99.90;;;;;;4966405;28;20055;-82
2023/08/23 06:43:10;;;;;;;1.30;1.30;;;18.90;99.90;;;;;;4986538;28;20116;-83
2023/08/23 06:45:36;;;;;;;1.50;1.40;;;19.00;99.90;;;;;;4966202;28;20057;-81
2023/08/23 06:48:01;;;;;;;1.30;1.30;;;19.10;99.90;;;;;;4988726;28;20046;-83
2023/08/23 06:50:27;;;;;;;1.30;1.30;;;19.40;99.90;;;;;;4967302;28;20043;-82
2023/08/23 06:52:52;;;;;;;1.42;1.35;;;19.40;99.90;;;;;;4967273;28;20514;-82
2023/08/23 06:55:19;;;;;;;1.60;1.50;;;19.60;99.90;;;;;;4965346;28;20500;-82
2023/08/23 06:57:45;;;;;;;1.45;1.38;;;19.80;99.90;;;;;;4946474;28;20050;-82
2023/08/23 07:00:12;;;;;;;1.10;1.10;;;19.90;99.90;;;;;;4984532;28;20054;-81
2023/08/23 07:02:38;;;;;;;1.10;1.10;;;19.90;99.90;;;;;;4964014;28;20055;-84
2023/08/23 07:05:08;;;;;;;1.00;1.00;;;20.10;99.90;;;;;;4982652;28;20129;-84
2023/08/23 07:07:33;;;;;;;1.02;1.02;;;20.30;99.90;;;;;;4976461;28;20050;-82
2023/08/23 07:09:59;;;;;;;1.08;1.08;;;20.40;99.90;;;;;;4981446;28;20054;-87
2023/08/23 07:12:26;;;;;;;1.10;1.10;;;20.40;99.90;;;;;;4959747;28;20046;-84
2023/08/23 07:14:51;;;;;;;1.10;1.10;;;20.40;99.90;;;;;;4971203;28;20074;-83
2023/08/23 07:17:17;;;;;;;1.10;1.10;;;20.60;99.90;;;;;;4964351;28;20144;-83
2023/08/23 07:19:43;;;;;;;1.50;1.40;;;20.70;99.90;;;;;;4963007;28;20077;-84
2023/08/23 07:22:08;;;;;;;1.10;1.10;;;20.70;99.90;;;;;;4969805;28;20076;-83
2023/08/23 07:24:34;;;;;;;1.33;1.33;;;20.90;99.90;;;;;;4968361;28;20054;-84
2023/08/23 07:27:00;;;;;;;1.17;1.17;;;21.00;99.90;;;;;;4964118;28;20042;-86
2023/08/23 07:29:26;;;;;;;1.30;1.30;;;21.00;99.90;;;;;;4964956;28;20057;-84
2023/08/23 07:31:51;;;;;;;1.55;1.45;;;21.10;99.90;;;;;;4967289;28;20042;-87
2023/08/23 07:34:17;;;;;;;1.70;1.60;;;21.30;99.90;;;;;;4964856;28;20129;-84
2023/08/23 07:36:43;;;;;;;1.60;1.50;;;21.30;99.90;;;;;;4988518;28;20061;-83
2023/08/23 07:39:08;;;;;;;1.70;1.60;;;21.50;99.90;;;;;;4965499;28;20058;-84
2023/08/23 07:41:34;;;;;;;1.70;1.60;;;21.40;99.90;;;;;;4988583;28;20133;-83
2023/08/23 07:44:00;;;;;;;1.70;1.60;;;21.40;99.90;;;;;;4965997;28;20077;-86
2023/08/23 07:46:25;;;;;;;1.90;1.80;;;21.60;99.90;;;;;;4968117;28;20537;-82
2023/08/23 07:48:51;;;;;;;1.75;1.65;;;21.80;99.90;;;;;;4984458;28;20589;-83
2023/08/23 07:51:17;;;;;;;1.70;1.60;;;22.00;99.90;;;;;;4965513;28;20472;-83
2023/08/23 07:53:43;;;;;;;1.80;1.70;;;22.10;99.90;;;;;;4982864;28;20201;-85
2023/08/23 07:56:10;;;;;;;1.70;1.60;;;22.30;99.90;;;;;;4985457;28;20812;-85
2023/08/23 07:58:38;;;;;;;1.70;1.60;;;22.20;99.90;;;;;;4968422;28;20050;-84
2023/08/23 08:01:07;;;;;;;1.80;1.70;;;22.10;99.90;;;;;;4977964;28;20132;-85
2023/08/23 08:03:33;;;;;;;2.00;1.90;;;22.10;99.90;;;;;;4975871;28;20066;-83
2023/08/23 08:05:58;;;;;;;1.95;1.85;;;22.10;99.90;;;;;;4979548;28;20632;-84
2023/08/23 08:08:25;;;;;;;1.88;1.77;;;22.30;99.90;;;;;;4956814;28;20053;-84
2023/08/23 08:10:50;;;;;;;1.95;1.85;;;22.60;99.90;;;;;;4957578;28;20042;-85
2023/08/23 08:13:16;;;;;;;2.10;2.00;;;22.60;99.90;;;;;;4958215;28;20053;-86
2023/08/23 08:15:42;;;;;;;2.08;1.98;;;22.60;99.90;;;;;;4961609;28;20055;-87
2023/08/23 08:18:08;;;;;;;2.00;1.90;;;22.80;99.90;;;;;;4961951;28;20047;-87
2023/08/23 08:20:34;;;;;;;1.83;1.73;;;22.80;99.90;;;;;;4962198;28;20078;-88
2023/08/23 08:22:59;;;;;;;1.73;1.63;;;22.80;99.90;;;;;;4962614;28;20141;-88
2023/08/23 08:25:25;;;;;;;1.67;1.58;;;22.80;99.90;;;;;;4962075;28;20136;-86
2023/08/23 08:27:51;;;;;;;1.20;1.20;;;23.00;99.90;;;;;;4964651;28;20050;-86
2023/08/23 08:30:17;;;;;;;1.33;1.33;;;23.20;99.90;;;;;;4961190;28;20050;-88
2023/08/23 08:32:43;;;;;;;0.40;0.40;;;23.30;99.90;;;;;;4947595;28;20057;-86
2023/08/23 08:35:09;;;;;;;1.23;1.23;;;23.50;99.90;;;;;;4961366;28;20078;-86
2023/08/23 08:37:35;;;;;;;0.40;0.40;;;23.50;99.90;;;;;;4959227;28;20057;-84
2023/08/23 08:40:01;;;;;;;1.10;1.10;;;23.60;99.90;;;;;;4968609;28;20499;-85
2023/08/23 08:42:29;;;;;;;0.30;0.30;;;23.70;99.90;;;;;;4951756;28;20046;-86
2023/08/23 08:44:55;;;;;;;0.35;0.35;;;23.70;99.90;;;;;;4968655;28;20050;-85
2023/08/23 08:47:22;;;;;;;0.30;0.30;;;23.60;99.90;;;;;;4959532;28;20052;-86
2023/08/23 08:49:48;;;;;;;0.60;0.60;;;23.80;99.90;;;;;;4968069;28;20042;-86
2023/08/23 08:52:19;;;;;;;0.32;0.32;;;24.10;99.90;;;;;;4961586;28;20085;-84
2023/08/23 08:54:48;;;;;;;0.30;0.30;;;24.20;99.90;;;;;;4960445;28;20062;-87
2023/08/23 08:57:15;;;;;;;0.30;0.30;;;24.30;99.90;;;;;;4957827;28;20562;-86
2023/08/23 08:59:42;;;;;;;0.30;0.30;;;24.20;99.90;;;;;;4976309;28;20068;-87
2023/08/23 09:02:12;;;;;;;0.40;0.40;;;24.20;99.90;;;;;;4943368;28;20082;-87
2023/08/23 09:04:39;;;;;;;0.30;0.30;;;24.40;99.90;;;;;;4956207;28;20073;-84
2023/08/23 09:07:05;;;;;;;0.32;0.32;;;24.30;99.90;;;;;;4958592;28;20061;-85
2023/08/23 09:09:31;;;;;;;0.30;0.30;;;24.40;99.90;;;;;;4959307;28;20129;-85
2023/08/23 09:11:57;;;;;;;0.30;0.30;;;24.60;99.90;;;;;;4963400;28;20066;-87
2023/08/23 09:14:25;;;;;;;0.30;0.30;;;24.80;99.90;;;;;;4963794;28;20054;-84
2023/08/23 09:16:51;;;;;;;0.30;0.30;;;24.80;99.90;;;;;;4981240;28;20057;-87
2023/08/23 09:19:16;;;;;;;0.30;0.30;;;24.80;99.90;;;;;;4962289;28;20058;-86
2023/08/23 09:21:49;;;;;;;0.30;0.30;;;24.90;99.90;;;;;;4963023;28;20412;-85
2023/08/23 09:24:15;;;;;;;0.38;0.38;;;24.80;99.90;;;;;;4962296;28;20123;-85
2023/08/23 09:26:41;;;;;;;0.30;0.30;;;25.10;99.90;;;;;;4969924;28;20046;-87
2023/08/23 09:29:07;;;;;;;0.30;0.30;;;25.10;99.90;;;;;;4947416;28;20050;-86
2023/08/23 09:31:33;;;;;;;0.30;0.30;;;25.10;99.90;;;;;;4965677;28;20050;-86
2023/08/23 09:34:00;;;;;;;0.30;0.30;;;25.10;99.90;;;;;;4957350;28;20883;-88
2023/08/23 09:36:41;;;;;;;0.30;0.30;;;25.20;99.90;;;;;;4972768;28;20050;-86
2023/08/23 09:39:11;;;;;;;0.30;0.30;;;25.30;99.90;;;;;;4959525;28;20173;-89
2023/08/23 09:41:42;;;;;;;0.30;0.30;;;25.40;99.90;;;;;;4963738;28;20822;-86
2023/08/23 09:44:08;;;;;;;0.30;0.30;;;25.50;99.90;;;;;;4963736;28;20069;-89
2023/08/23 09:46:37;;;;;;;0.30;0.30;;;25.60;99.90;;;;;;4954777;28;20046;-87
2023/08/23 09:49:04;;;;;;;0.30;0.30;;;25.70;99.90;;;;;;4983947;28;20054;-88
2023/08/23 09:51:34;;;;;;;0.30;0.30;;;25.80;99.90;;;;;;4978747;28;20060;-87
2023/08/23 09:54:08;;;;;;;0.30;0.30;;;26.00;99.90;;;;;;4964373;28;20054;-86
2023/08/23 09:56:35;;;;;;;0.30;0.30;;;25.90;99.90;;;;;;4962972;28;20209;-87
2023/08/23 09:59:02;;;;;;;0.30;0.30;;;26.00;99.90;;;;;;4982495;28;20050;-87
2023/08/23 10:01:28;;;;;;;0.30;0.30;;;26.10;99.90;;;;;;4965956;28;20042;-87
2023/08/23 10:03:54;;;;;;;0.30;0.30;;;26.10;99.90;;;;;;4959960;28;20046;-85
2023/08/23 10:06:22;;;;;;;0.30;0.30;;;26.20;99.90;;;;;;4961918;28;20895;-88
2023/08/23 10:08:48;;;;;;;0.40;0.40;;;26.40;99.90;;;;;;4966619;28;20046;-86
2023/08/23 10:11:18;;;;;;;0.30;0.30;;;26.30;99.90;;;;;;4980561;28;20500;-85
2023/08/23 10:13:45;;;;;;;0.30;0.30;;;26.50;99.90;;;;;;4982073;28;20780;-84
2023/08/23 10:16:13;;;;;;;0.30;0.30;;;26.50;99.90;;;;;;4966073;28;20061;-87
2023/08/23 10:18:39;;;;;;;0.40;0.40;;;26.50;99.90;;;;;;4962811;28;20050;-88
2023/08/23 10:21:05;;;;;;;0.30;0.30;;;26.80;99.90;;;;;;4959390;28;20061;-86
2023/08/23 10:23:36;;;;;;;0.30;0.30;;;26.90;99.90;;;;;;4957732;28;20050;-88
2023/08/23 10:26:02;;;;;;;0.30;0.30;;;26.80;99.90;;;;;;4960092;28;20154;-87
2023/08/23 10:28:28;;;;;;;0.30;0.30;;;26.90;99.90;;;;;;4960944;28;20140;-87
2023/08/23 10:30:58;;;;;;;0.30;0.30;;;26.90;99.90;;;;;;4960282;28;20046;-85
2023/08/23 10:33:24;;;;;;;0.30;0.30;;;26.90;99.90;;;;;;4946611;28;20092;-85
2023/08/23 10:35:50;;;;;;;0.30;0.30;;;27.20;99.90;;;;;;4964308;28;20073;-89
2023/08/23 10:38:16;;;;;;;0.30;0.30;;;27.00;99.90;;;;;;4958357;28;20073;-86
2023/08/23 10:40:47;;;;;;;0.30;0.30;;;27.20;99.90;;;;;;4955966;28;20065;-87
2023/08/23 10:43:17;;;;;;;0.30;0.30;;;27.30;99.90;;;;;;4978894;28;20058;-86
2023/08/23 10:46:02;;;;;;;0.30;0.30;;;27.30;99.90;;;;;;4965498;28;20046;-87
2023/08/23 10:48:28;;;;;;;0.20;0.20;;;27.30;99.90;;;;;;4959640;28;20055;-88
2023/08/23 10:50:54;;;;;;;0.20;0.20;;;27.50;99.90;;;;;;4955607;28;20538;-86
2023/08/23 10:53:21;;;;;;;0.25;0.25;;;27.60;99.90;;;;;;4974575;28;20161;-87
2023/08/23 10:55:48;;;;;;;0.30;0.30;;;27.60;99.90;;;;;;4979772;28;20119;-87
2023/08/23 10:58:14;;;;;;;0.30;0.30;;;27.70;99.90;;;;;;4959781;28;20139;-84
2023/08/23 11:00:45;;;;;;;0.20;0.20;;;27.60;99.90;;;;;;4963240;28;21722;-87
2023/08/23 11:03:12;;;;;;;0.30;0.30;;;27.90;99.90;;;;;;4955857;28;20063;-86
2023/08/23 11:05:38;;;;;;;0.20;0.20;;;27.70;99.90;;;;;;4955889;28;20081;-87
2023/08/23 11:08:05;;;;;;;0.30;0.30;;;27.80;99.90;;;;;;4960614;28;20046;-90
2023/08/23 11:10:31;;;;;;;0.30;0.30;;;28.00;99.90;;;;;;4958064;28;20051;-89
2023/08/23 11:12:57;;;;;;;0.30;0.30;;;28.00;99.90;;;;;;4960280;28;20050;-88
2023/08/23 11:15:23;;;;;;;0.30;0.30;;;28.10;99.90;;;;;;4960666;28;20053;-85
2023/08/23 11:17:49;;;;;;;0.30;0.30;;;28.10;99.90;;;;;;4976912;28;20105;-88
2023/08/23 11:20:16;;;;;;;0.30;0.30;;;28.20;99.90;;;;;;4959120;28;20112;-85
2023/08/23 11:22:42;;;;;;;0.20;0.20;;;28.10;99.90;;;;;;4963319;28;20039;-84
2023/08/23 11:25:08;;;;;;;0.30;0.30;;;28.30;99.90;;;;;;4959688;28;20142;-88
2023/08/23 11:27:34;;;;;;;0.30;0.30;;;28.20;99.90;;;;;;4966352;28;20134;-86
2023/08/23 11:30:01;;;;;;;0.20;0.20;;;28.20;99.90;;;;;;4961427;28;20109;-88
2023/08/23 11:32:26;;;;;;;0.30;0.30;;;28.50;99.90;;;;;;4971670;28;20088;-88
2023/08/23 11:34:54;;;;;;;0.30;0.30;;;28.80;99.90;;;;;;4963778;28;20470;-88
2023/08/23 11:37:25;;;;;;;0.30;0.30;;;28.60;99.90;;;;;;4966042;28;20046;-92
2023/08/23 11:39:59;;;;;;;0.30;0.30;;;29.00;99.90;;;;;;4963463;28;20046;-86
2023/08/23 11:42:26;;;;;;;0.30;0.30;;;29.00;99.90;;;;;;4964431;28;20050;-86
2023/08/23 11:44:56;;;;;;;0.30;0.30;;;28.90;99.90;;;;;;4963279;28;20131;-87
2023/08/23 11:47:25;;;;;;;0.30;0.30;;;29.10;99.90;;;;;;4961555;28;20081;-88
2023/08/23 11:49:54;;;;;;;0.30;0.30;;;28.90;99.90;;;;;;4982236;28;20054;-89
2023/08/23 11:52:20;;;;;;;0.30;0.30;;;28.30;99.90;;;;;;4964924;28;20082;-89
2023/08/23 11:54:46;;;;;;;0.30;0.30;;;29.10;99.90;;;;;;4944455;28;20082;-92
2023/08/23 11:57:16;;;;;;;0.30;0.30;;;28.70;99.90;;;;;;4945905;28;20054;-89
2023/08/23 11:59:43;;;;;;;0.30;0.30;;;27.60;99.90;;;;;;4956688;28;20058;-87
2023/08/23 12:02:10;;;;;;;0.30;0.30;;;26.90;99.90;;;;;;4950445;28;20054;-88
2023/08/23 12:04:41;;;;;;;0.30;0.30;;;27.80;99.90;;;;;;4967927;28;20497;-89
2023/08/23 12:07:07;;;;;;;0.30;0.30;;;28.40;99.90;;;;;;4985396;28;20050;-88
2023/08/23 12:09:32;;;;;;;0.30;0.30;;;28.40;99.90;;;;;;4963928;28;20054;-88
2023/08/23 12:11:59;;;;;;;0.30;0.30;;;28.70;99.90;;;;;;4961095;28;20136;-89
2023/08/23 12:14:28;;;;;;;0.30;0.30;;;29.00;99.90;;;;;;4961154;28;20041;-88
2023/08/23 12:16:54;;;;;;;0.30;0.30;;;29.30;99.90;;;;;;4962953;28;20050;-86
2023/08/23 12:19:20;;;;;;;0.32;0.32;;;29.00;99.90;;;;;;4977875;28;21312;-89
2023/08/23 12:21:46;;;;;;;0.30;0.30;;;28.80;99.90;;;;;;4970580;28;20034;-89
2023/08/23 12:24:11;;;;;;;0.30;0.30;;;29.20;99.90;;;;;;4966013;28;20419;-88
2023/08/23 12:26:37;;;;;;;0.22;0.22;;;29.40;99.90;;;;;;4961489;28;20057;-85
2023/08/23 12:29:03;;;;;;;0.30;0.30;;;29.30;99.90;;;;;;4977302;28;20043;-86
2023/08/23 12:31:35;;;;;;;0.20;0.20;;;29.40;99.90;;;;;;4983290;28;20054;-89
2023/08/23 12:34:01;;;;;;;0.30;0.30;;;29.40;99.90;;;;;;4962453;28;20492;-89
2023/08/23 12:36:27;;;;;;;0.30;0.30;;;28.40;99.90;;;;;;4943701;28;20050;-89
2023/08/23 12:38:53;;;;;;;0.30;0.30;;;27.80;99.90;;;;;;4961923;28;20070;-86
2023/08/23 12:41:18;;;;;;;0.30;0.30;;;27.30;99.90;;;;;;4956736;28;20055;-87
2023/08/23 12:43:44;;;;;;;0.30;0.30;;;27.10;99.90;;;;;;4965669;28;20053;-90
2023/08/23 12:46:10;;;;;;;0.30;0.30;;;26.80;99.90;;;;;;4941675;28;20065;-87